sensor_id;sensor_type;location;lat;lon;timestamp;pressure;altitude;pressure_sealevel;temperature;humidity
6389;BME280;3227;42.654;23.360;2022-09-03T00:00:48;94395.47;;;18.28;99.89
6389;BME280;3227;42.654;23.360;2022-09-03T00:03:21;94410.91;;;18.31;99.51
6389;BME280;3227;42.654;23.360;2022-09-03T00:05:54;94414.56;;;18.25;99.58
6389;BME280;3227;42.654;23.360;2022-09-03T00:08:26;94414.56;;;18.25;99.77
6389;BME280;3227;42.654;23.360;2022-09-03T00:10:59;94417.25;;;18.22;99.42
6389;BME280;3227;42.654;23.360;2022-09-03T00:13:32;94419.97;;;18.19;98.76
6389;BME280;3227;42.654;23.360;2022-09-03T00:16:02;94412.22;;;18.18;99.07
6389;BME280;3227;42.654;23.360;2022-09-03T00:18:36;94413.16;;;18.15;98.71
6389;BME280;3227;42.654;23.360;2022-09-03T00:21:10;94423.72;;;18.09;99.04
6389;BME280;3227;42.654;23.360;2022-09-03T00:23:40;94392.22;;;17.94;99.69
6389;BME280;3227;42.654;23.360;2022-09-03T00:26:17;94416.63;;;18.14;100.00
6389;BME280;3227;42.654;23.360;2022-09-03T00:28:53;94415.50;;;18.23;99.80
6389;BME280;3227;42.654;23.360;2022-09-03T00:31:27;94414.53;;;18.27;99.49
6389;BME280;3227;42.654;23.360;2022-09-03T00:33:59;94421.47;;;18.27;98.37
6389;BME280;3227;42.654;23.360;2022-09-03T00:36:33;94417.03;;;18.29;98.30
6389;BME280;3227;42.654;23.360;2022-09-03T00:39:01;94411.81;;;18.30;98.91
6389;BME280;3227;42.654;23.360;2022-09-03T00:41:32;94410.91;;;18.31;97.69
6389;BME280;3227;42.654;23.360;2022-09-03T00:44:35;94412.91;;;18.23;97.01
6389;BME280;3227;42.654;23.360;2022-09-03T00:47:10;94411.16;;;18.23;97.77
6389;BME280;3227;42.654;23.360;2022-09-03T00:49:48;94414.66;;;18.22;97.17
6389;BME280;3227;42.654;23.360;2022-09-03T00:52:24;94418.13;;;18.21;96.66
6389;BME280;3227;42.654;23.360;2022-09-03T00:55:02;94422.38;;;18.24;97.30
6389;BME280;3227;42.654;23.360;2022-09-03T00:57:42;94420.66;;;18.24;97.41
6389;BME280;3227;42.654;23.360;2022-09-03T01:00:15;94389.19;;;18.07;97.69
6389;BME280;3227;42.654;23.360;2022-09-03T01:03:00;94421.47;;;18.27;97.79
6389;BME280;3227;42.654;23.360;2022-09-03T01:05:41;94414.56;;;18.25;97.24
6389;BME280;3227;42.654;23.360;2022-09-03T01:08:27;94409.25;;;18.29;97.57
6389;BME280;3227;42.654;23.360;2022-09-03T01:11:03;94411.84;;;18.29;97.90
6389;BME280;3227;42.654;23.360;2022-09-03T01:13:40;94405.03;;;18.26;97.39
6389;BME280;3227;42.654;23.360;2022-09-03T01:16:19;94415.47;;;18.24;97.29
6389;BME280;3227;42.654;23.360;2022-09-03T01:18:58;94372.88;;;18.04;97.15
6389;BME280;3227;42.654;23.360;2022-09-03T01:21:43;94412.03;;;18.24;97.01
6389;BME280;3227;42.654;23.360;2022-09-03T01:24:30;94408.63;;;18.22;96.72
6389;BME280;3227;42.654;23.360;2022-09-03T01:27:20;94413.22;;;18.12;96.60
6389;BME280;3227;42.654;23.360;2022-09-03T01:29:57;94423.16;;;18.00;95.94
6389;BME280;3227;42.654;23.360;2022-09-03T01:32:36;94430.34;;;17.90;96.55
6389;BME280;3227;42.654;23.360;2022-09-03T01:35:13;94430.56;;;17.82;97.41
6389;BME280;3227;42.654;23.360;2022-09-03T01:37:53;94433.41;;;17.75;97.05
6389;BME280;3227;42.654;23.360;2022-09-03T01:40:29;94442.75;;;17.79;97.53
6389;BME280;3227;42.654;23.360;2022-09-03T01:43:12;94440.16;;;17.79;98.00
6389;BME280;3227;42.654;23.360;2022-09-03T01:45:52;94435.84;;;17.79;98.35
6389;BME280;3227;42.654;23.360;2022-09-03T01:48:40;94386.72;;;17.45;98.13
6389;BME280;3227;42.654;23.360;2022-09-03T01:51:19;94428.22;;;17.75;98.24
6389;BME280;3227;42.654;23.360;2022-09-03T01:54:17;94431.97;;;17.65;98.55
6389;BME280;3227;42.654;23.360;2022-09-03T01:57:16;94426.69;;;17.68;99.08
6389;BME280;3227;42.654;23.360;2022-09-03T01:59:54;94430.00;;;17.73;98.38
6389;BME280;3227;42.654;23.360;2022-09-03T02:02:27;94428.28;;;17.72;98.45
6389;BME280;3227;42.654;23.360;2022-09-03T02:04:58;94429.94;;;17.74;98.64
6389;BME280;3227;42.654;23.360;2022-09-03T02:07:29;94427.22;;;17.79;98.25
6389;BME280;3227;42.654;23.360;2022-09-03T02:09:58;94428.16;;;17.76;97.77
6389;BME280;3227;42.654;23.360;2022-09-03T02:12:27;94420.28;;;17.79;97.72
6389;BME280;3227;42.654;23.360;2022-09-03T02:14:58;94429.81;;;17.79;97.69
6389;BME280;3227;42.654;23.360;2022-09-03T02:17:29;94426.59;;;17.71;97.29
6389;BME280;3227;42.654;23.360;2022-09-03T02:19:57;94440.97;;;17.81;97.39
6389;BME280;3227;42.654;23.360;2022-09-03T02:22:24;94439.25;;;17.81;97.32
6389;BME280;3227;42.654;23.360;2022-09-03T02:24:51;94448.88;;;17.78;96.92
6389;BME280;3227;42.654;23.360;2022-09-03T02:27:18;94441.09;;;17.78;97.34
6389;BME280;3227;42.654;23.360;2022-09-03T02:29:45;94438.53;;;17.76;96.77
6389;BME280;3227;42.654;23.360;2022-09-03T02:32:12;94442.06;;;17.74;96.77
6389;BME280;3227;42.654;23.360;2022-09-03T02:34:40;94401.47;;;17.43;96.88
6389;BME280;3227;42.654;23.360;2022-09-03T02:37:12;94440.53;;;17.67;97.32
6389;BME280;3227;42.654;23.360;2022-09-03T02:39:39;94450.88;;;17.68;97.08
6389;BME280;3227;42.654;23.360;2022-09-03T02:42:06;94445.56;;;17.71;96.93
6389;BME280;3227;42.654;23.360;2022-09-03T02:44:37;94449.16;;;17.67;96.96
6389;BME280;3227;42.654;23.360;2022-09-03T02:47:06;94456.06;;;17.68;96.96
6389;BME280;3227;42.654;23.360;2022-09-03T02:49:34;94450.75;;;17.71;96.70
6389;BME280;3227;42.654;23.360;2022-09-03T02:52:04;94441.34;;;17.69;96.97
6389;BME280;3227;42.654;23.360;2022-09-03T02:54:34;94450.72;;;17.73;96.47
6389;BME280;3227;42.654;23.360;2022-09-03T02:57:04;94455.09;;;17.71;96.79
6389;BME280;3227;42.654;23.360;2022-09-03T02:59:31;94456.78;;;17.72;96.07
6389;BME280;3227;42.654;23.360;2022-09-03T03:01:58;94465.31;;;17.77;96.38
6389;BME280;3227;42.654;23.360;2022-09-03T03:04:24;94461.13;;;17.71;95.40
6389;BME280;3227;42.654;23.360;2022-09-03T03:06:51;94456.09;;;17.67;96.00
6389;BME280;3227;42.654;23.360;2022-09-03T03:09:19;94462.16;;;17.66;96.18
6389;BME280;3227;42.654;23.360;2022-09-03T03:11:46;94457.09;;;17.61;96.12
6389;BME280;3227;42.654;23.360;2022-09-03T03:14:14;94457.06;;;17.63;96.68
6389;BME280;3227;42.654;23.360;2022-09-03T03:16:41;94452.59;;;17.68;97.03
6389;BME280;3227;42.654;23.360;2022-09-03T03:19:07;94451.69;;;17.70;96.78
6389;BME280;3227;42.654;23.360;2022-09-03T03:21:34;94448.31;;;17.67;96.03
6389;BME280;3227;42.654;23.360;2022-09-03T03:24:02;94372.59;;;17.26;96.53
6389;BME280;3227;42.654;23.360;2022-09-03T03:26:30;94444.63;;;17.75;95.85
6389;BME280;3227;42.654;23.360;2022-09-03T03:28:58;94442.84;;;17.77;95.67
6389;BME280;3227;42.654;23.360;2022-09-03T03:31:26;94451.53;;;17.75;96.02
6389;BME280;3227;42.654;23.360;2022-09-03T03:33:54;94453.53;;;17.65;95.92
6389;BME280;3227;42.654;23.360;2022-09-03T03:36:24;94458.69;;;17.67;96.16
6389;BME280;3227;42.654;23.360;2022-09-03T03:38:52;94457.88;;;17.65;96.33
6389;BME280;3227;42.654;23.360;2022-09-03T03:41:21;94457.84;;;17.66;96.57
6389;BME280;3227;42.654;23.360;2022-09-03T03:43:53;94454.22;;;17.72;96.36
6389;BME280;3227;42.654;23.360;2022-09-03T03:46:20;94453.44;;;17.70;96.25
6389;BME280;3227;42.654;23.360;2022-09-03T03:48:48;94466.28;;;17.73;95.46
6389;BME280;3227;42.654;23.360;2022-09-03T03:51:15;94457.53;;;17.77;95.09
6389;BME280;3227;42.654;23.360;2022-09-03T03:53:43;94424.41;;;17.56;95.14
6389;BME280;3227;42.654;23.360;2022-09-03T03:56:13;94450.75;;;17.71;94.81
6389;BME280;3227;42.654;23.360;2022-09-03T03:58:41;94439.06;;;17.57;95.18
6389;BME280;3227;42.654;23.360;2022-09-03T04:01:11;94450.91;;;17.67;95.33
6389;BME280;3227;42.654;23.360;2022-09-03T04:03:38;94474.69;;;17.81;95.54
6389;BME280;3227;42.654;23.360;2022-09-03T04:06:06;94460.75;;;17.85;95.29
6389;BME280;3227;42.654;23.360;2022-09-03T04:08:34;94459.78;;;17.87;95.36
6389;BME280;3227;42.654;23.360;2022-09-03T04:11:02;94462.25;;;17.92;94.28
6389;BME280;3227;42.654;23.360;2022-09-03T04:13:29;94460.56;;;17.91;94.11
6389;BME280;3227;42.654;23.360;2022-09-03T04:16:00;94470.03;;;17.92;94.53
6389;BME280;3227;42.654;23.360;2022-09-03T04:18:29;94465.66;;;17.94;94.23
6389;BME280;3227;42.654;23.360;2022-09-03T04:20:58;94461.09;;;18.02;93.97
6389;BME280;3227;42.654;23.360;2022-09-03T04:23:29;94462.94;;;17.99;93.44
6389;BME280;3227;42.654;23.360;2022-09-03T04:25:56;94456.94;;;17.97;93.30
6389;BME280;3227;42.654;23.360;2022-09-03T04:28:23;94462.94;;;17.99;93.56
6389;BME280;3227;42.654;23.360;2022-09-03T04:30:49;94469.63;;;18.06;94.33
6389;BME280;3227;42.654;23.360;2022-09-03T04:33:16;94472.09;;;18.10;94.07
6389;BME280;3227;42.654;23.360;2022-09-03T04:35:43;94474.63;;;18.12;93.38
6389;BME280;3227;42.654;23.360;2022-09-03T04:38:10;94478.88;;;18.14;93.40
6389;BME280;3227;42.654;23.360;2022-09-03T04:40:37;94487.53;;;18.13;93.38
6389;BME280;3227;42.654;23.360;2022-09-03T04:43:04;94490.19;;;18.12;93.06
6389;BME280;3227;42.654;23.360;2022-09-03T04:45:30;94495.50;;;18.07;93.82
6389;BME280;3227;42.654;23.360;2022-09-03T04:47:58;94491.25;;;18.05;93.46
6389;BME280;3227;42.654;23.360;2022-09-03T04:50:26;94473.38;;;17.96;93.86
6389;BME280;3227;42.654;23.360;2022-09-03T04:52:55;94489.44;;;18.08;94.42
6389;BME280;3227;42.654;23.360;2022-09-03T04:55:25;94508.22;;;18.16;93.77
6389;BME280;3227;42.654;23.360;2022-09-03T04:57:52;94506.47;;;18.17;93.40
6389;BME280;3227;42.654;23.360;2022-09-03T05:00:19;94505.47;;;18.21;93.19
6389;BME280;3227;42.654;23.360;2022-09-03T05:02:46;94508.91;;;18.21;92.79
6389;BME280;3227;42.654;23.360;2022-09-03T05:05:13;94502.94;;;18.19;92.89
6389;BME280;3227;42.654;23.360;2022-09-03T05:07:40;94520.06;;;18.25;92.80
6389;BME280;3227;42.654;23.360;2022-09-03T05:10:11;94518.41;;;18.22;92.75
6389;BME280;3227;42.654;23.360;2022-09-03T05:12:40;94524.59;;;18.18;92.54
6389;BME280;3227;42.654;23.360;2022-09-03T05:15:08;94518.31;;;18.25;92.49
6389;BME280;3227;42.654;23.360;2022-09-03T05:17:34;94515.00;;;18.20;92.02
6389;BME280;3227;42.654;23.360;2022-09-03T05:20:03;94516.06;;;18.13;92.45
6389;BME280;3227;42.654;23.360;2022-09-03T05:22:30;94516.88;;;18.15;92.49
6389;BME280;3227;42.654;23.360;2022-09-03T05:24:56;94519.34;;;18.20;92.80
6389;BME280;3227;42.654;23.360;2022-09-03T05:27:25;94518.50;;;18.19;92.73
6389;BME280;3227;42.654;23.360;2022-09-03T05:29:51;94527.34;;;18.12;92.66
6389;BME280;3227;42.654;23.360;2022-09-03T05:32:18;94516.91;;;18.14;93.70
6389;BME280;3227;42.654;23.360;2022-09-03T05:34:45;94516.69;;;18.21;93.62
6389;BME280;3227;42.654;23.360;2022-09-03T05:37:12;94517.59;;;18.20;93.77
6389;BME280;3227;42.654;23.360;2022-09-03T05:39:38;94524.63;;;18.17;93.58
6389;BME280;3227;42.654;23.360;2022-09-03T05:42:05;94518.94;;;18.04;93.05
6389;BME280;3227;42.654;23.360;2022-09-03T05:44:33;94532.41;;;18.17;93.37
6389;BME280;3227;42.654;23.360;2022-09-03T05:47:01;94535.91;;;18.14;92.92
6389;BME280;3227;42.654;23.360;2022-09-03T05:49:28;94539.56;;;18.09;93.33
6389;BME280;3227;42.654;23.360;2022-09-03T05:51:55;94538.97;;;17.99;93.35
6389;BME280;3227;42.654;23.360;2022-09-03T05:54:21;94527.28;;;17.84;93.75
6389;BME280;3227;42.654;23.360;2022-09-03T05:56:48;94508.81;;;17.66;93.99
6389;BME280;3227;42.654;23.360;2022-09-03T05:59:15;94513.88;;;17.70;94.26
6389;BME280;3227;42.654;23.360;2022-09-03T06:01:45;94470.25;;;17.54;93.14
6389;BME280;3227;42.654;23.360;2022-09-03T06:04:14;94543.50;;;17.91;93.27
6389;BME280;3227;42.654;23.360;2022-09-03T06:06:43;94538.25;;;17.94;92.45
6389;BME280;3227;42.654;23.360;2022-09-03T06:09:11;94527.97;;;17.91;92.44
6389;BME280;3227;42.654;23.360;2022-09-03T06:11:39;94537.72;;;18.12;92.53
6389;BME280;3227;42.654;23.360;2022-09-03T06:14:08;94501.88;;;17.96;91.20
6389;BME280;3227;42.654;23.360;2022-09-03T06:16:37;94500.06;;;17.99;90.73
6389;BME280;3227;42.654;23.360;2022-09-03T06:19:06;94543.13;;;18.34;90.05
6389;BME280;3227;42.654;23.360;2022-09-03T06:21:35;94539.47;;;18.41;89.97
6389;BME280;3227;42.654;23.360;2022-09-03T06:24:02;94539.22;;;18.49;90.13
6389;BME280;3227;42.654;23.360;2022-09-03T06:26:29;94538.34;;;18.50;89.00
6389;BME280;3227;42.654;23.360;2022-09-03T06:28:56;94545.09;;;18.54;88.81
6389;BME280;3227;42.654;23.360;2022-09-03T06:31:25;94526.53;;;18.40;87.49
6389;BME280;3227;42.654;23.360;2022-09-03T06:33:52;94550.28;;;18.54;88.09
6389;BME280;3227;42.654;23.360;2022-09-03T06:36:23;94562.25;;;18.61;87.62
6389;BME280;3227;42.654;23.360;2022-09-03T06:38:52;94566.97;;;18.76;86.83
6389;BME280;3227;42.654;23.360;2022-09-03T06:41:21;94564.75;;;18.92;86.91
6389;BME280;3227;42.654;23.360;2022-09-03T06:43:50;94562.38;;;19.11;86.68
6389;BME280;3227;42.654;23.360;2022-09-03T06:46:18;94556.50;;;19.32;85.53
6389;BME280;3227;42.654;23.360;2022-09-03T06:48:46;94564.31;;;19.58;84.31
6389;BME280;3227;42.654;23.360;2022-09-03T06:51:14;94566.59;;;19.67;82.96
6389;BME280;3227;42.654;23.360;2022-09-03T06:53:44;94570.75;;;19.71;82.51
6389;BME280;3227;42.654;23.360;2022-09-03T06:56:12;94564.94;;;19.65;82.56
6389;BME280;3227;42.654;23.360;2022-09-03T06:58:42;94571.94;;;19.63;82.88
6389;BME280;3227;42.654;23.360;2022-09-03T07:01:11;94567.88;;;19.54;83.57
6389;BME280;3227;42.654;23.360;2022-09-03T07:03:40;94569.00;;;19.47;83.86
6389;BME280;3227;42.654;23.360;2022-09-03T07:06:09;94568.09;;;19.48;84.36
6389;BME280;3227;42.654;23.360;2022-09-03T07:08:36;94551.72;;;19.45;83.37
6389;BME280;3227;42.654;23.360;2022-09-03T07:11:06;94571.03;;;19.64;83.47
6389;BME280;3227;42.654;23.360;2022-09-03T07:13:34;94574.00;;;19.78;83.77
6389;BME280;3227;42.654;23.360;2022-09-03T07:16:03;94579.72;;;19.88;82.41
6389;BME280;3227;42.654;23.360;2022-09-03T07:18:31;94581.78;;;20.03;82.36
6389;BME280;3227;42.654;23.360;2022-09-03T07:20:59;94585.59;;;20.18;80.63
6389;BME280;3227;42.654;23.360;2022-09-03T07:23:26;94560.13;;;20.02;80.31
6389;BME280;3227;42.654;23.360;2022-09-03T07:25:54;94580.97;;;20.26;79.87
6389;BME280;3227;42.654;23.360;2022-09-03T07:28:23;94588.78;;;20.26;79.30
6389;BME280;3227;42.654;23.360;2022-09-03T07:30:50;94544.78;;;19.95;79.74
6389;BME280;3227;42.654;23.360;2022-09-03T07:33:18;94592.94;;;20.06;80.42
6389;BME280;3227;42.654;23.360;2022-09-03T07:35:45;94600.53;;;19.88;82.12
6389;BME280;3227;42.654;23.360;2022-09-03T07:38:16;94604.59;;;19.95;82.73
6389;BME280;3227;42.654;23.360;2022-09-03T07:40:43;94605.75;;;20.11;82.90
6389;BME280;3227;42.654;23.360;2022-09-03T07:43:10;94604.44;;;20.24;80.28
6389;BME280;3227;42.654;23.360;2022-09-03T07:45:38;94601.13;;;20.19;79.83
6389;BME280;3227;42.654;23.360;2022-09-03T07:48:05;94608.41;;;20.34;79.05
6389;BME280;3227;42.654;23.360;2022-09-03T07:50:32;94598.47;;;20.45;78.69
6389;BME280;3227;42.654;23.360;2022-09-03T07:53:03;94609.00;;;20.66;77.35
6389;BME280;3227;42.654;23.360;2022-09-03T07:55:30;94605.13;;;20.76;77.33
6389;BME280;3227;42.654;23.360;2022-09-03T07:57:57;94607.81;;;20.96;77.23
6389;BME280;3227;42.654;23.360;2022-09-03T08:00:24;94600.13;;;21.15;75.58
6389;BME280;3227;42.654;23.360;2022-09-03T08:02:52;94605.34;;;21.37;74.91
6389;BME280;3227;42.654;23.360;2022-09-03T08:05:20;94607.69;;;21.43;74.08
6389;BME280;3227;42.654;23.360;2022-09-03T08:07:47;94616.31;;;21.45;73.15
6389;BME280;3227;42.654;23.360;2022-09-03T08:10:15;94612.56;;;21.30;73.24
6389;BME280;3227;42.654;23.360;2022-09-03T08:12:41;94614.94;;;21.36;74.10
6389;BME280;3227;42.654;23.360;2022-09-03T08:15:09;94618.75;;;21.49;74.49
6389;BME280;3227;42.654;23.360;2022-09-03T08:17:35;94617.50;;;21.58;74.30
6389;BME280;3227;42.654;23.360;2022-09-03T08:20:04;94615.19;;;21.72;74.19
6389;BME280;3227;42.654;23.360;2022-09-03T08:22:32;94617.78;;;21.92;72.10
6389;BME280;3227;42.654;23.360;2022-09-03T08:25:04;94613.91;;;22.02;71.23
6389;BME280;3227;42.654;23.360;2022-09-03T08:27:31;94621.75;;;22.02;69.81
6389;BME280;3227;42.654;23.360;2022-09-03T08:29:59;94619.00;;;22.06;71.05
6389;BME280;3227;42.654;23.360;2022-09-03T08:32:28;94609.03;;;22.15;69.84
6389;BME280;3227;42.654;23.360;2022-09-03T08:34:55;94614.03;;;21.99;70.46
6389;BME280;3227;42.654;23.360;2022-09-03T08:37:23;94621.38;;;21.70;70.94
6389;BME280;3227;42.654;23.360;2022-09-03T08:39:51;94614.25;;;21.53;71.25
6389;BME280;3227;42.654;23.360;2022-09-03T08:42:29;94609.19;;;21.70;71.76
6389;BME280;3227;42.654;23.360;2022-09-03T08:44:59;94604.50;;;21.78;71.08
6389;BME280;3227;42.654;23.360;2022-09-03T08:47:29;94607.50;;;21.89;72.28
6389;BME280;3227;42.654;23.360;2022-09-03T08:50:02;94602.56;;;22.04;70.74
6389;BME280;3227;42.654;23.360;2022-09-03T08:52:35;94605.56;;;22.15;70.93
6389;BME280;3227;42.654;23.360;2022-09-03T08:55:22;94591.97;;;22.27;70.36
6389;BME280;3227;42.654;23.360;2022-09-03T08:57:56;94605.00;;;22.47;69.56
6389;BME280;3227;42.654;23.360;2022-09-03T09:00:36;94609.22;;;22.68;68.50
6389;BME280;3227;42.654;23.360;2022-09-03T09:03:32;94605.03;;;22.85;67.09
6389;BME280;3227;42.654;23.360;2022-09-03T09:06:07;94542.38;;;22.46;66.60
6389;BME280;3227;42.654;23.360;2022-09-03T09:08:47;94616.59;;;22.98;66.86
6389;BME280;3227;42.654;23.360;2022-09-03T09:11:26;94606.50;;;23.09;66.68
6389;BME280;3227;42.654;23.360;2022-09-03T09:13:58;94608.31;;;23.07;66.32
6389;BME280;3227;42.654;23.360;2022-09-03T09:16:37;94619.06;;;23.01;66.67
6389;BME280;3227;42.654;23.360;2022-09-03T09:19:16;94612.44;;;22.94;65.80
6389;BME280;3227;42.654;23.360;2022-09-03T09:21:50;94615.31;;;22.69;66.82
6389;BME280;3227;42.654;23.360;2022-09-03T09:24:23;94607.53;;;22.67;67.24
6389;BME280;3227;42.654;23.360;2022-09-03T09:26:54;94619.69;;;22.68;66.10
6389;BME280;3227;42.654;23.360;2022-09-03T09:29:21;94614.06;;;22.77;66.59
6389;BME280;3227;42.654;23.360;2022-09-03T09:31:49;94620.09;;;22.80;66.56
6389;BME280;3227;42.654;23.360;2022-09-03T09:34:16;94618.66;;;22.91;66.92
6389;BME280;3227;42.654;23.360;2022-09-03T09:36:45;94614.81;;;22.98;66.46
6389;BME280;3227;42.654;23.360;2022-09-03T09:39:13;94621.13;;;23.13;65.49
6389;BME280;3227;42.654;23.360;2022-09-03T09:41:42;94614.94;;;23.33;65.67
6389;BME280;3227;42.654;23.360;2022-09-03T09:44:18;94612.16;;;23.55;65.68
6389;BME280;3227;42.654;23.360;2022-09-03T09:46:45;94599.22;;;23.51;63.72
6389;BME280;3227;42.654;23.360;2022-09-03T09:49:28;94616.19;;;23.62;64.35
6389;BME280;3227;42.654;23.360;2022-09-03T09:52:00;94573.81;;;23.36;63.94
6389;BME280;3227;42.654;23.360;2022-09-03T09:54:39;94619.41;;;23.67;64.48
6389;BME280;3227;42.654;23.360;2022-09-03T09:57:14;94619.53;;;23.64;63.87
6389;BME280;3227;42.654;23.360;2022-09-03T09:59:43;94623.09;;;23.63;63.69
6389;BME280;3227;42.654;23.360;2022-09-03T10:02:12;94626.63;;;23.62;64.28
6389;BME280;3227;42.654;23.360;2022-09-03T10:04:40;94629.19;;;23.63;64.49
6389;BME280;3227;42.654;23.360;2022-09-03T10:07:22;94628.25;;;23.81;63.37
6389;BME280;3227;42.654;23.360;2022-09-03T10:10:03;94632.09;;;23.92;63.38
6389;BME280;3227;42.654;23.360;2022-09-03T10:12:35;94620.56;;;23.78;63.46
6389;BME280;3227;42.654;23.360;2022-09-03T10:15:16;94620.72;;;23.75;64.17
6389;BME280;3227;42.654;23.360;2022-09-03T10:17:54;94628.03;;;23.86;63.47
6389;BME280;3227;42.654;23.360;2022-09-03T10:20:27;94625.03;;;23.94;62.76
6389;BME280;3227;42.654;23.360;2022-09-03T10:22:59;94614.69;;;23.73;62.59
6389;BME280;3227;42.654;23.360;2022-09-03T10:25:35;94593.44;;;23.45;64.44
6389;BME280;3227;42.654;23.360;2022-09-03T10:28:08;94572.56;;;23.07;63.23
6389;BME280;3227;42.654;23.360;2022-09-03T10:30:46;94616.16;;;23.07;65.06
6389;BME280;3227;42.654;23.360;2022-09-03T10:33:22;94611.09;;;23.04;67.71
6389;BME280;3227;42.654;23.360;2022-09-03T10:35:52;94611.28;;;23.18;67.02
6389;BME280;3227;42.654;23.360;2022-09-03T10:38:26;94607.63;;;23.39;67.12
6389;BME280;3227;42.654;23.360;2022-09-03T10:41:07;94607.47;;;23.61;66.85
6389;BME280;3227;42.654;23.360;2022-09-03T10:43:57;94607.94;;;23.52;64.53
6389;BME280;3227;42.654;23.360;2022-09-03T10:46:35;94609.28;;;23.23;66.52
6389;BME280;3227;42.654;23.360;2022-09-03T10:49:19;94606.97;;;23.17;65.73
6389;BME280;3227;42.654;23.360;2022-09-03T10:51:54;94614.69;;;23.20;65.58
6389;BME280;3227;42.654;23.360;2022-09-03T10:54:40;94613.84;;;23.20;66.01
6389;BME280;3227;42.654;23.360;2022-09-03T10:57:17;94608.41;;;23.05;65.02
6389;BME280;3227;42.654;23.360;2022-09-03T10:59:58;94603.69;;;22.95;65.94
6389;BME280;3227;42.654;23.360;2022-09-03T11:05:34;94600.91;;;22.98;65.82
6389;BME280;3227;42.654;23.360;2022-09-03T11:08:06;94612.22;;;22.98;65.75
6389;BME280;3227;42.654;23.360;2022-09-03T11:10:40;94603.31;;;23.02;65.58
6389;BME280;3227;42.654;23.360;2022-09-03T11:13:09;94574.09;;;22.94;64.76
6389;BME280;3227;42.654;23.360;2022-09-03T11:15:51;94562.94;;;22.91;64.72
6389;BME280;3227;42.654;23.360;2022-09-03T11:18:21;94617.91;;;23.25;65.67
6389;BME280;3227;42.654;23.360;2022-09-03T11:20:53;94572.81;;;23.03;64.20
6389;BME280;3227;42.654;23.360;2022-09-03T11:23:21;94615.72;;;23.16;65.11
6389;BME280;3227;42.654;23.360;2022-09-03T11:25:52;94615.31;;;23.25;65.04
6389;BME280;3227;42.654;23.360;2022-09-03T11:28:28;94609.09;;;23.28;64.23
6389;BME280;3227;42.654;23.360;2022-09-03T11:31:10;94612.84;;;23.39;64.59
6389;BME280;3227;42.654;23.360;2022-09-03T11:33:46;94598.59;;;23.46;63.46
6389;BME280;3227;42.654;23.360;2022-09-03T11:36:24;94606.84;;;23.56;63.03
6389;BME280;3227;42.654;23.360;2022-09-03T11:38:52;94594.91;;;23.50;62.64
6389;BME280;3227;42.654;23.360;2022-09-03T11:41:23;94598.00;;;23.59;63.29
6389;BME280;3227;42.654;23.360;2022-09-03T11:43:52;94610.63;;;23.68;61.99
6389;BME280;3227;42.654;23.360;2022-09-03T11:46:29;94558.59;;;23.44;61.88
6389;BME280;3227;42.654;23.360;2022-09-03T11:49:09;94612.66;;;23.80;61.51
6389;BME280;3227;42.654;23.360;2022-09-03T11:51:39;94614.09;;;23.85;61.36
6389;BME280;3227;42.654;23.360;2022-09-03T11:54:23;94613.13;;;23.88;62.77
6389;BME280;3227;42.654;23.360;2022-09-03T11:56:50;94611.31;;;23.88;62.13
6389;BME280;3227;42.654;23.360;2022-09-03T11:59:29;94621.03;;;23.86;61.99
6389;BME280;3227;42.654;23.360;2022-09-03T12:02:00;94616.47;;;23.90;61.28
6389;BME280;3227;42.654;23.360;2022-09-03T12:04:37;94609.09;;;23.98;61.14
6389;BME280;3227;42.654;23.360;2022-09-03T12:07:24;94599.00;;;23.90;60.30
6389;BME280;3227;42.654;23.360;2022-09-03T12:10:09;94589.78;;;23.30;61.34
6389;BME280;3227;42.654;23.360;2022-09-03T12:12:45;94593.78;;;23.20;63.34
6389;BME280;3227;42.654;23.360;2022-09-03T12:15:25;94563.44;;;23.16;62.75
6389;BME280;3227;42.654;23.360;2022-09-03T12:17:57;94599.22;;;23.51;61.93
6389;BME280;3227;42.654;23.360;2022-09-03T12:20:42;94595.19;;;23.63;61.10
6389;BME280;3227;42.654;23.360;2022-09-03T12:23:10;94586.28;;;23.48;60.49
6389;BME280;3227;42.654;23.360;2022-09-03T12:25:42;94587.72;;;23.37;60.64
6389;BME280;3227;42.654;23.360;2022-09-03T12:28:15;94582.13;;;23.44;61.63
6389;BME280;3227;42.654;23.360;2022-09-03T12:30:44;94548.25;;;23.41;60.42
6389;BME280;3227;42.654;23.360;2022-09-03T12:33:16;94593.88;;;23.72;60.63
6389;BME280;3227;42.654;23.360;2022-09-03T12:35:54;94583.41;;;23.72;59.68
6389;BME280;3227;42.654;23.360;2022-09-03T12:38:22;94588.25;;;23.79;60.95
6389;BME280;3227;42.654;23.360;2022-09-03T12:40:49;94590.94;;;23.61;62.40
6389;BME280;3227;42.654;23.360;2022-09-03T12:43:17;94581.84;;;23.50;62.70
6389;BME280;3227;42.654;23.360;2022-09-03T12:45:46;94584.25;;;23.55;62.00
6389;BME280;3227;42.654;23.360;2022-09-03T12:48:14;94581.00;;;23.50;62.77
6389;BME280;3227;42.654;23.360;2022-09-03T12:50:42;94580.56;;;23.40;63.32
6389;BME280;3227;42.654;23.360;2022-09-03T12:53:12;94574.91;;;23.49;63.19
6389;BME280;3227;42.654;23.360;2022-09-03T12:55:42;94568.06;;;23.47;62.06
6389;BME280;3227;42.654;23.360;2022-09-03T12:58:14;94570.59;;;23.48;61.50
6389;BME280;3227;42.654;23.360;2022-09-03T13:00:45;94576.59;;;23.50;61.18
6389;BME280;3227;42.654;23.360;2022-09-03T13:03:18;94570.63;;;23.66;60.58
6389;BME280;3227;42.654;23.360;2022-09-03T13:05:54;94563.28;;;23.72;60.23
6389;BME280;3227;42.654;23.360;2022-09-03T13:08:24;94570.22;;;23.90;59.60
6389;BME280;3227;42.654;23.360;2022-09-03T13:10:53;94561.84;;;23.84;57.98
6389;BME280;3227;42.654;23.360;2022-09-03T13:13:23;94568.63;;;23.88;58.50
6389;BME280;3227;42.654;23.360;2022-09-03T13:16:10;94566.28;;;23.82;58.29
6389;BME280;3227;42.654;23.360;2022-09-03T13:18:47;94554.44;;;23.92;59.01
6389;BME280;3227;42.654;23.360;2022-09-03T13:21:25;94552.97;;;24.04;58.87
6389;BME280;3227;42.654;23.360;2022-09-03T13:24:02;94564.91;;;23.92;59.52
6389;BME280;3227;42.654;23.360;2022-09-03T13:26:38;94556.00;;;23.62;60.90
6389;BME280;3227;42.654;23.360;2022-09-03T13:29:32;94550.59;;;23.65;61.01
6389;BME280;3227;42.654;23.360;2022-09-03T13:32:12;94557.38;;;23.69;58.99
6389;BME280;3227;42.654;23.360;2022-09-03T13:34:47;94545.81;;;23.73;59.53
6389;BME280;3227;42.654;23.360;2022-09-03T13:37:27;94550.31;;;23.88;59.69